sensor_id;sensor_type;location;lat;lon;timestamp;P1;durP1;ratioP1;P2;durP2;ratioP2
46597;SDS011;32318;48.858;8.252;2023-02-11T00:01:39;40.30;;;15.95;;
46597;SDS011;32318;48.858;8.252;2023-02-11T00:09:39;36.47;;;15.82;;
46597;SDS011;32318;48.858;8.252;2023-02-11T00:17:39;45.33;;;15.52;;
46597;SDS011;32318;48.858;8.252;2023-02-11T00:25:43;37.38;;;15.35;;
46597;SDS011;32318;48.858;8.252;2023-02-11T00:33:44;37.13;;;14.52;;
46597;SDS011;32318;48.858;8.252;2023-02-11T00:41:45;37.45;;;13.77;;
46597;SDS011;32318;48.858;8.252;2023-02-11T00:49:45;39.42;;;14.93;;
46597;SDS011;32318;48.858;8.252;2023-02-11T00:57:46;46.20;;;15.48;;
46597;SDS011;32318;48.858;8.252;2023-02-11T01:05:46;40.20;;;15.55;;
46597;SDS011;32318;48.858;8.252;2023-02-11T01:13:46;36.33;;;14.07;;
46597;SDS011;32318;48.858;8.252;2023-02-11T01:21:48;36.83;;;14.45;;
46597;SDS011;32318;48.858;8.252;2023-02-11T01:29:48;35.17;;;13.95;;
46597;SDS011;32318;48.858;8.252;2023-02-11T01:37:48;39.25;;;14.45;;
46597;SDS011;32318;48.858;8.252;2023-02-11T01:45:57;30.30;;;12.77;;
46597;SDS011;32318;48.858;8.252;2023-02-11T01:54:03;30.48;;;11.98;;
46597;SDS011;32318;48.858;8.252;2023-02-11T02:02:48;31.65;;;12.75;;
46597;SDS011;32318;48.858;8.252;2023-02-11T02:10:47;33.20;;;12.75;;
46597;SDS011;32318;48.858;8.252;2023-02-11T02:27:07;28.10;;;11.93;;
46597;SDS011;32318;48.858;8.252;2023-02-11T02:43:25;31.88;;;12.77;;
46597;SDS011;32318;48.858;8.252;2023-02-11T02:59:54;29.55;;;11.88;;
46597;SDS011;32318;48.858;8.252;2023-02-11T03:16:06;35.70;;;13.10;;
46597;SDS011;32318;48.858;8.252;2023-02-11T03:24:12;35.00;;;13.88;;
46597;SDS011;32318;48.858;8.252;2023-02-11T03:32:22;41.97;;;17.30;;
46597;SDS011;32318;48.858;8.252;2023-02-11T03:40:27;42.90;;;16.75;;
46597;SDS011;32318;48.858;8.252;2023-02-11T03:48:37;48.30;;;16.85;;
46597;SDS011;32318;48.858;8.252;2023-02-11T03:56:42;43.40;;;18.00;;
46597;SDS011;32318;48.858;8.252;2023-02-11T04:04:50;44.00;;;18.20;;
46597;SDS011;32318;48.858;8.252;2023-02-11T04:12:50;49.45;;;17.23;;
46597;SDS011;32318;48.858;8.252;2023-02-11T04:20:50;45.50;;;17.92;;
46597;SDS011;32318;48.858;8.252;2023-02-11T04:28:56;45.90;;;17.17;;
46597;SDS011;32318;48.858;8.252;2023-02-11T04:36:57;43.78;;;17.15;;
46597;SDS011;32318;48.858;8.252;2023-02-11T04:44:57;41.85;;;16.45;;
46597;SDS011;32318;48.858;8.252;2023-02-11T04:53:01;46.60;;;18.90;;
46597;SDS011;32318;48.858;8.252;2023-02-11T05:01:08;44.35;;;18.10;;
46597;SDS011;32318;48.858;8.252;2023-02-11T05:09:10;50.42;;;18.33;;
46597;SDS011;32318;48.858;8.252;2023-02-11T05:17:11;48.95;;;17.95;;
46597;SDS011;32318;48.858;8.252;2023-02-11T05:25:11;43.45;;;17.23;;
46597;SDS011;32318;48.858;8.252;2023-02-11T05:33:12;39.88;;;16.80;;
46597;SDS011;32318;48.858;8.252;2023-02-11T05:41:12;45.67;;;18.20;;
46597;SDS011;32318;48.858;8.252;2023-02-11T05:49:13;47.55;;;18.17;;
46597;SDS011;32318;48.858;8.252;2023-02-11T05:57:14;52.25;;;17.63;;
46597;SDS011;32318;48.858;8.252;2023-02-11T06:05:14;44.05;;;17.20;;
46597;SDS011;32318;48.858;8.252;2023-02-11T06:13:15;46.22;;;17.38;;
46597;SDS011;32318;48.858;8.252;2023-02-11T06:21:17;44.25;;;15.50;;
46597;SDS011;32318;48.858;8.252;2023-02-11T06:29:17;40.55;;;15.55;;
46597;SDS011;32318;48.858;8.252;2023-02-11T06:37:18;51.80;;;19.73;;
46597;SDS011;32318;48.858;8.252;2023-02-11T06:45:18;40.85;;;17.60;;
46597;SDS011;32318;48.858;8.252;2023-02-11T06:53:19;39.88;;;16.85;;
46597;SDS011;32318;48.858;8.252;2023-02-11T07:01:20;48.55;;;19.58;;
46597;SDS011;32318;48.858;8.252;2023-02-11T07:09:21;42.47;;;17.05;;
46597;SDS011;32318;48.858;8.252;2023-02-11T07:17:21;43.90;;;16.35;;
46597;SDS011;32318;48.858;8.252;2023-02-11T07:25:21;45.27;;;17.17;;
46597;SDS011;32318;48.858;8.252;2023-02-11T07:33:22;47.78;;;18.88;;
46597;SDS011;32318;48.858;8.252;2023-02-11T07:41:23;41.00;;;16.63;;
46597;SDS011;32318;48.858;8.252;2023-02-11T07:49:24;50.85;;;18.33;;
46597;SDS011;32318;48.858;8.252;2023-02-11T07:57:24;44.40;;;18.80;;
46597;SDS011;32318;48.858;8.252;2023-02-11T08:05:25;52.35;;;20.67;;
46597;SDS011;32318;48.858;8.252;2023-02-11T08:13:25;51.97;;;19.92;;
46597;SDS011;32318;48.858;8.252;2023-02-11T08:21:26;56.22;;;20.42;;
46597;SDS011;32318;48.858;8.252;2023-02-11T08:29:27;59.20;;;22.35;;
46597;SDS011;32318;48.858;8.252;2023-02-11T08:37:27;60.40;;;22.77;;
46597;SDS011;32318;48.858;8.252;2023-02-11T08:45:27;67.45;;;25.08;;
46597;SDS011;32318;48.858;8.252;2023-02-11T08:53:28;63.50;;;23.13;;
46597;SDS011;32318;48.858;8.252;2023-02-11T09:01:28;52.08;;;20.38;;
46597;SDS011;32318;48.858;8.252;2023-02-11T09:09:31;53.63;;;20.48;;
46597;SDS011;32318;48.858;8.252;2023-02-11T09:17:31;69.35;;;22.80;;
46597;SDS011;32318;48.858;8.252;2023-02-11T09:25:37;51.47;;;21.55;;
46597;SDS011;32318;48.858;8.252;2023-02-11T09:33:39;64.25;;;23.38;;
46597;SDS011;32318;48.858;8.252;2023-02-11T09:41:52;52.88;;;20.80;;
46597;SDS011;32318;48.858;8.252;2023-02-11T09:50:06;63.47;;;24.27;;
46597;SDS011;32318;48.858;8.252;2023-02-11T09:58:12;62.25;;;23.95;;
46597;SDS011;32318;48.858;8.252;2023-02-11T10:22:49;69.93;;;23.42;;
46597;SDS011;32318;48.858;8.252;2023-02-11T10:30:59;58.05;;;21.88;;
46597;SDS011;32318;48.858;8.252;2023-02-11T10:39:35;57.65;;;21.48;;
46597;SDS011;32318;48.858;8.252;2023-02-11T10:47:30;57.58;;;21.00;;
46597;SDS011;32318;48.858;8.252;2023-02-11T10:55:38;61.40;;;21.63;;
46597;SDS011;32318;48.858;8.252;2023-02-11T11:03:50;48.13;;;18.95;;
46597;SDS011;32318;48.858;8.252;2023-02-11T11:11:51;52.13;;;18.75;;
46597;SDS011;32318;48.858;8.252;2023-02-11T11:20:12;51.28;;;19.10;;
46597;SDS011;32318;48.858;8.252;2023-02-11T11:28:17;53.47;;;18.23;;
46597;SDS011;32318;48.858;8.252;2023-02-11T11:36:22;47.60;;;19.90;;
46597;SDS011;32318;48.858;8.252;2023-02-11T11:44:32;46.22;;;18.58;;
46597;SDS011;32318;48.858;8.252;2023-02-11T11:52:43;44.35;;;17.90;;
46597;SDS011;32318;48.858;8.252;2023-02-11T12:26:00;33.88;;;13.70;;
46597;SDS011;32318;48.858;8.252;2023-02-11T13:08:05;40.25;;;16.15;;
46597;SDS011;32318;48.858;8.252;2023-02-11T13:41:01;42.08;;;16.98;;
46597;SDS011;32318;48.858;8.252;2023-02-11T13:49:02;42.10;;;15.95;;
46597;SDS011;32318;48.858;8.252;2023-02-11T14:05:26;39.85;;;17.00;;
46597;SDS011;32318;48.858;8.252;2023-02-11T14:21:51;41.03;;;18.42;;
46597;SDS011;32318;48.858;8.252;2023-02-11T14:29:57;50.40;;;19.30;;
46597;SDS011;32318;48.858;8.252;2023-02-11T14:38:23;44.38;;;18.92;;
46597;SDS011;32318;48.858;8.252;2023-02-11T14:46:34;45.10;;;18.90;;
46597;SDS011;32318;48.858;8.252;2023-02-11T14:54:35;46.42;;;19.38;;
46597;SDS011;32318;48.858;8.252;2023-02-11T15:02:35;44.92;;;19.60;;
46597;SDS011;32318;48.858;8.252;2023-02-11T15:10:40;38.55;;;17.15;;
46597;SDS011;32318;48.858;8.252;2023-02-11T15:18:44;50.95;;;19.42;;
46597;SDS011;32318;48.858;8.252;2023-02-11T15:34:58;45.78;;;20.38;;
46597;SDS011;32318;48.858;8.252;2023-02-11T15:43:02;48.35;;;17.73;;
46597;SDS011;32318;48.858;8.252;2023-02-11T15:51:11;51.20;;;19.42;;
46597;SDS011;32318;48.858;8.252;2023-02-11T15:59:24;43.00;;;18.27;;
46597;SDS011;32318;48.858;8.252;2023-02-11T16:07:40;48.53;;;21.35;;
46597;SDS011;32318;48.858;8.252;2023-02-11T16:15:47;50.08;;;22.02;;
46597;SDS011;32318;48.858;8.252;2023-02-11T16:24:17;51.83;;;21.48;;
46597;SDS011;32318;48.858;8.252;2023-02-11T16:32:24;73.40;;;26.10;;
46597;SDS011;32318;48.858;8.252;2023-02-11T16:40:26;67.40;;;26.40;;
46597;SDS011;32318;48.858;8.252;2023-02-11T16:48:26;54.97;;;23.63;;
46597;SDS011;32318;48.858;8.252;2023-02-11T16:56:26;131.65;;;49.17;;
46597;SDS011;32318;48.858;8.252;2023-02-11T17:04:28;75.13;;;29.13;;
46597;SDS011;32318;48.858;8.252;2023-02-11T17:12:32;50.78;;;22.30;;
46597;SDS011;32318;48.858;8.252;2023-02-11T17:20:32;53.67;;;24.40;;
46597;SDS011;32318;48.858;8.252;2023-02-11T17:28:32;58.55;;;24.70;;
46597;SDS011;32318;48.858;8.252;2023-02-11T17:36:33;62.53;;;26.13;;
46597;SDS011;32318;48.858;8.252;2023-02-11T17:44:33;64.22;;;25.33;;
46597;SDS011;32318;48.858;8.252;2023-02-11T17:52:34;56.00;;;23.90;;
46597;SDS011;32318;48.858;8.252;2023-02-11T18:00:35;55.63;;;24.50;;
46597;SDS011;32318;48.858;8.252;2023-02-11T18:08:35;54.33;;;23.75;;
46597;SDS011;32318;48.858;8.252;2023-02-11T18:16:36;58.22;;;25.73;;
46597;SDS011;32318;48.858;8.252;2023-02-11T18:24:38;53.08;;;22.60;;
46597;SDS011;32318;48.858;8.252;2023-02-11T18:32:38;50.60;;;21.65;;
46597;SDS011;32318;48.858;8.252;2023-02-11T18:40:39;45.35;;;20.02;;
46597;SDS011;32318;48.858;8.252;2023-02-11T18:48:40;52.20;;;20.65;;
46597;SDS011;32318;48.858;8.252;2023-02-11T18:56:40;46.97;;;19.95;;
46597;SDS011;32318;48.858;8.252;2023-02-11T19:04:41;43.42;;;19.42;;
46597;SDS011;32318;48.858;8.252;2023-02-11T19:12:41;42.13;;;18.53;;
46597;SDS011;32318;48.858;8.252;2023-02-11T19:20:42;43.33;;;19.38;;
46597;SDS011;32318;48.858;8.252;2023-02-11T19:28:43;42.33;;;19.73;;
46597;SDS011;32318;48.858;8.252;2023-02-11T19:36:43;37.35;;;17.58;;
46597;SDS011;32318;48.858;8.252;2023-02-11T19:44:44;36.83;;;18.73;;
46597;SDS011;32318;48.858;8.252;2023-02-11T19:52:45;42.28;;;17.50;;
46597;SDS011;32318;48.858;8.252;2023-02-11T20:00:45;36.53;;;16.33;;
46597;SDS011;32318;48.858;8.252;2023-02-11T20:08:45;34.55;;;15.55;;
46597;SDS011;32318;48.858;8.252;2023-02-11T20:16:45;39.17;;;16.75;;
46597;SDS011;32318;48.858;8.252;2023-02-11T20:24:46;33.70;;;16.13;;
46597;SDS011;32318;48.858;8.252;2023-02-11T20:32:46;35.53;;;14.80;;
46597;SDS011;32318;48.858;8.252;2023-02-11T20:40:47;27.48;;;13.60;;
46597;SDS011;32318;48.858;8.252;2023-02-11T20:48:47;35.05;;;13.85;;
46597;SDS011;32318;48.858;8.252;2023-02-11T20:56:48;37.15;;;13.73;;
46597;SDS011;32318;48.858;8.252;2023-02-11T21:04:52;26.65;;;13.23;;
46597;SDS011;32318;48.858;8.252;2023-02-11T21:12:52;31.65;;;12.82;;
46597;SDS011;32318;48.858;8.252;2023-02-11T21:20:53;27.95;;;12.45;;
46597;SDS011;32318;48.858;8.252;2023-02-11T21:28:54;22.55;;;11.63;;
46597;SDS011;32318;48.858;8.252;2023-02-11T21:36:54;25.35;;;12.40;;
46597;SDS011;32318;48.858;8.252;2023-02-11T21:44:54;30.13;;;12.70;;
46597;SDS011;32318;48.858;8.252;2023-02-11T21:52:54;33.60;;;13.23;;
46597;SDS011;32318;48.858;8.252;2023-02-11T22:00:55;27.63;;;12.63;;
46597;SDS011;32318;48.858;8.252;2023-02-11T22:08:55;28.92;;;12.73;;
46597;SDS011;32318;48.858;8.252;2023-02-11T22:16:56;25.40;;;12.27;;
46597;SDS011;32318;48.858;8.252;2023-02-11T22:24:56;23.38;;;11.68;;
46597;SDS011;32318;48.858;8.252;2023-02-11T22:32:58;28.15;;;12.15;;
46597;SDS011;32318;48.858;8.252;2023-02-11T22:40:59;23.42;;;11.68;;
46597;SDS011;32318;48.858;8.252;2023-02-11T22:49:05;26.87;;;11.13;;
46597;SDS011;32318;48.858;8.252;2023-02-11T22:57:06;25.98;;;11.40;;
46597;SDS011;32318;48.858;8.252;2023-02-11T23:05:06;27.23;;;11.23;;
46597;SDS011;32318;48.858;8.252;2023-02-11T23:13:07;23.52;;;11.43;;
46597;SDS011;32318;48.858;8.252;2023-02-11T23:21:10;22.38;;;10.82;;
46597;SDS011;32318;48.858;8.252;2023-02-11T23:29:15;24.02;;;11.43;;
46597;SDS011;32318;48.858;8.252;2023-02-11T23:37:15;25.48;;;11.05;;
46597;SDS011;32318;48.858;8.252;2023-02-11T23:45:16;23.38;;;10.68;;
46597;SDS011;32318;48.858;8.252;2023-02-11T23:53:16;23.40;;;9.88;;
